createdAt,value
2019-06-08T00:02:26.463Z,66.79
2019-06-08T00:04:56.775Z,67.65
2019-06-08T00:07:27.428Z,67.84
2019-06-08T00:09:57.808Z,68.34
2019-06-08T00:12:28.100Z,68.95
2019-06-08T00:14:58.466Z,69.06
2019-06-08T00:17:37.951Z,70.20
2019-06-08T00:20:01.222Z,70.68
2019-06-08T00:22:31.591Z,70.75
2019-06-08T00:25:02.394Z,70.91
2019-06-08T00:27:32.771Z,70.30
2019-06-08T00:30:03.621Z,69.65
2019-06-08T00:32:34.158Z,68.81
2019-06-08T00:35:04.793Z,69.16
2019-06-08T00:37:35.500Z,69.16
2019-06-08T00:40:06.412Z,70.17
2019-06-08T00:42:36.772Z,70.09
2019-06-08T00:45:07.436Z,70.26
2019-06-08T00:47:47.666Z,69.87
2019-06-08T00:50:10.991Z,70.43
2019-06-08T00:52:41.607Z,70.81
2019-06-08T00:55:11.968Z,70.99
2019-06-08T00:57:42.433Z,70.40
2019-06-08T01:00:13.417Z,70.09
2019-06-08T01:02:43.849Z,70.23
2019-06-08T01:05:14.443Z,71.09
2019-06-08T01:07:44.705Z,71.85
2019-06-08T01:10:15.819Z,73.13
2019-06-08T01:12:46.207Z,74.17
2019-06-08T01:15:23.813Z,73.30
2019-06-08T01:18:02.008Z,76.02
2019-06-08T01:20:23.525Z,74.80
2019-06-08T01:22:54.172Z,75.58
2019-06-08T01:25:25.713Z,75.29
2019-06-08T01:27:56.541Z,74.80
2019-06-08T01:30:28.495Z,75.54
2019-06-08T01:32:58.841Z,75.22
2019-06-08T01:35:30.886Z,76.00
2019-06-08T01:38:01.373Z,75.38
2019-06-08T01:40:31.682Z,74.61
2019-06-08T01:43:02.145Z,74.81
2019-06-08T01:45:33.452Z,74.80
2019-06-08T01:48:19.461Z,74.61
2019-06-08T01:50:37.894Z,74.36
2019-06-08T01:53:08.629Z,74.19
2019-06-08T01:55:38.936Z,73.76
2019-06-08T01:58:09.239Z,74.25
2019-06-08T02:00:41.601Z,75.45
2019-06-08T02:03:12.181Z,75.80
2019-06-08T02:05:42.927Z,74.39
2019-06-08T02:08:13.254Z,73.88
2019-06-08T02:10:43.560Z,73.82
2019-06-08T02:13:13.925Z,74.52
2019-06-08T02:15:44.351Z,73.88
2019-06-08T02:18:14.658Z,75.30
2019-06-08T02:20:45.452Z,74.85
2019-06-08T02:23:15.903Z,74.32
2019-06-08T02:25:46.273Z,74.82
2019-06-08T02:28:16.917Z,76.04
2019-06-08T02:30:47.544Z,75.87
2019-06-08T02:33:17.815Z,76.00
2019-06-08T02:35:48.575Z,76.53
2019-06-08T02:38:18.900Z,76.01
2019-06-08T02:40:49.315Z,76.01
2019-06-08T02:43:19.725Z,75.62
2019-06-08T02:45:50.024Z,75.42
2019-06-08T02:48:20.681Z,75.57
2019-06-08T02:50:54.474Z,75.75
2019-06-08T02:53:26.193Z,75.04
2019-06-08T02:55:57.230Z,74.95
2019-06-08T02:58:29.237Z,74.82
2019-06-08T03:00:59.913Z,75.86
2019-06-08T03:03:33.813Z,76.57
2019-06-08T03:06:05.693Z,77.04
2019-06-08T03:08:41.273Z,77.44
2019-06-08T03:11:11.006Z,78.15
2019-06-08T03:13:42.508Z,78.99
2019-06-08T03:16:13.284Z,79.80
2019-06-08T03:18:44.005Z,80.01
2019-06-08T03:21:14.462Z,80.36
2019-06-08T03:23:45.098Z,80.69
2019-06-08T03:26:15.699Z,79.89
2019-06-08T03:28:46.001Z,79.45
2019-06-08T03:31:16.332Z,79.29
2019-06-08T03:33:54.398Z,78.16
2019-06-08T03:36:19.046Z,78.16
2019-06-08T03:38:49.326Z,78.72
2019-06-08T03:41:19.689Z,79.03
2019-06-08T03:43:50.196Z,78.81
2019-06-08T03:46:20.827Z,78.24
2019-06-08T03:48:52.319Z,78.15
2019-06-08T03:51:22.716Z,78.10
2019-06-08T03:53:53.269Z,78.06
2019-06-08T03:56:23.572Z,77.99
2019-06-08T03:58:53.960Z,77.08
2019-06-08T04:01:24.571Z,76.90
2019-06-08T04:03:59.581Z,76.90
2019-06-08T04:06:27.191Z,76.52
2019-06-08T04:08:57.805Z,76.12
2019-06-08T04:11:28.133Z,75.82
2019-06-08T04:13:58.528Z,75.38
2019-06-08T04:16:28.852Z,75.03
2019-06-08T04:18:59.164Z,74.30
2019-06-08T04:21:29.582Z,73.58
2019-06-08T04:24:00.100Z,73.14
2019-06-08T04:26:30.550Z,72.49
2019-06-08T04:29:01.263Z,71.80
2019-06-08T04:31:31.983Z,71.33
2019-06-08T04:34:02.257Z,70.63
2019-06-08T04:36:33.081Z,70.56
2019-06-08T04:39:03.567Z,70.06
2019-06-08T04:41:33.880Z,70.39
2019-06-08T04:44:04.589Z,70.09
2019-06-08T04:46:34.986Z,69.77
2019-06-08T04:49:05.923Z,68.57
2019-06-08T04:51:36.482Z,68.62
2019-06-08T04:54:06.761Z,69.12
2019-06-08T04:56:38.601Z,68.46
2019-06-08T04:59:09.204Z,68.25
2019-06-08T05:01:40.876Z,67.79
2019-06-08T05:04:11.361Z,67.25
2019-06-08T05:06:42.959Z,66.92
2019-06-08T05:09:13.282Z,66.66
2019-06-08T05:11:45.199Z,66.29
2019-06-08T05:14:16.072Z,65.97
2019-06-08T05:16:47.433Z,65.25
2019-06-08T05:19:18.123Z,64.21
2019-06-08T05:21:49.861Z,62.90
2019-06-08T05:24:20.440Z,63.40
2019-06-08T05:26:51.308Z,63.63
2019-06-08T05:29:21.590Z,63.59
2019-06-08T05:31:51.956Z,63.93
2019-06-08T05:34:22.447Z,63.51
2019-06-08T05:36:52.740Z,63.52
2019-06-08T05:39:23.035Z,62.00
2019-06-08T05:41:53.693Z,62.09
2019-06-08T05:44:24.198Z,61.96
2019-06-08T05:46:54.673Z,62.06
2019-06-08T05:49:25.343Z,61.20
2019-06-08T05:51:56.150Z,61.18
2019-06-08T05:54:26.480Z,61.66
2019-06-08T05:56:57.246Z,61.47
2019-06-08T05:59:27.870Z,59.97
2019-06-08T06:01:58.179Z,59.39
2019-06-08T06:04:28.619Z,59.77
2019-06-08T06:06:59.101Z,59.78
2019-06-08T06:09:29.369Z,59.40
2019-06-08T06:11:59.692Z,58.04
2019-06-08T06:14:30.446Z,57.24
2019-06-08T06:17:00.744Z,56.85
2019-06-08T06:19:31.026Z,57.24
2019-06-08T06:22:01.532Z,56.58
2019-06-08T06:24:32.100Z,56.07
2019-06-08T06:27:02.793Z,55.42
2019-06-08T06:29:33.104Z,55.49
2019-06-08T06:32:03.428Z,55.47
2019-06-08T06:34:34.068Z,54.58
2019-06-08T06:37:04.603Z,54.45
2019-06-08T06:39:34.890Z,53.92
2019-06-08T06:42:05.623Z,54.11
2019-06-08T06:44:36.130Z,55.81
2019-06-08T06:47:06.426Z,55.30
2019-06-08T06:49:38.434Z,55.33
2019-06-08T06:52:09.225Z,54.98
2019-06-08T06:54:40.065Z,54.40
2019-06-08T06:57:10.362Z,53.34
2019-06-08T06:59:40.645Z,53.14
2019-06-08T07:02:11.417Z,51.81
2019-06-08T07:04:41.750Z,52.54
2019-06-08T07:07:12.018Z,52.18
2019-06-08T07:09:42.735Z,53.34
2019-06-08T07:12:13.284Z,54.24
2019-06-08T07:14:44.895Z,52.43
2019-06-08T07:17:15.578Z,51.84
2019-06-08T07:19:46.415Z,52.13
2019-06-08T07:22:17.720Z,52.17
2019-06-08T07:24:48.227Z,52.78
2019-06-08T07:27:18.526Z,51.25
2019-06-08T07:29:49.179Z,50.34
2019-06-08T07:32:19.633Z,51.43
2019-06-08T07:34:51.272Z,51.12
2019-06-08T07:37:21.894Z,50.67
2019-06-08T07:39:53.643Z,50.40
2019-06-08T07:42:24.208Z,51.56
2019-06-08T07:44:55.070Z,50.52
2019-06-08T07:47:26.006Z,51.99
2019-06-08T07:49:56.488Z,50.82
2019-06-08T07:52:26.906Z,49.84
2019-06-08T07:54:58.614Z,49.70
2019-06-08T07:57:28.939Z,49.80
2019-06-08T08:00:00.182Z,51.05
2019-06-08T08:02:31.030Z,50.63
2019-06-08T08:05:01.543Z,50.85
2019-06-08T08:07:31.911Z,49.76
2019-06-08T08:10:02.793Z,49.75
2019-06-08T08:12:33.509Z,49.57
2019-06-08T08:15:04.174Z,48.43
2019-06-08T08:17:35.983Z,46.67
2019-06-08T08:20:07.009Z,48.15
2019-06-08T08:22:38.176Z,49.74
2019-06-08T08:25:08.939Z,50.80
2019-06-08T08:27:39.602Z,46.96
2019-06-08T08:30:10.318Z,48.42
2019-06-08T08:32:40.930Z,47.00
2019-06-08T08:35:11.469Z,47.70
2019-06-08T08:37:42.059Z,43.13
2019-06-08T08:40:13.696Z,40.79
2019-06-08T08:42:43.999Z,38.78
2019-06-08T08:45:18.126Z,38.31
2019-06-08T08:47:48.568Z,39.38
2019-06-08T08:50:20.185Z,39.32
2019-06-08T08:52:51.282Z,39.23
2019-06-08T08:55:23.171Z,39.17
2019-06-08T08:57:54.784Z,39.54
2019-06-08T09:00:25.105Z,38.69
2019-06-08T09:03:19.036Z,39.00
2019-06-08T09:05:28.128Z,39.68
2019-06-08T09:08:02.074Z,38.39
2019-06-08T09:10:31.009Z,37.58
2019-06-08T09:13:04.211Z,37.94
2019-06-08T09:15:33.698Z,38.38
2019-06-08T09:18:04.215Z,38.93
2019-06-08T09:20:37.899Z,39.39
2019-06-08T09:23:14.965Z,40.02
2019-06-08T09:25:40.550Z,38.26
2019-06-08T09:28:12.241Z,38.98
2019-06-08T09:30:42.887Z,40.43
2019-06-08T09:33:13.417Z,38.36
2019-06-08T09:35:43.965Z,37.83
2019-06-08T09:38:14.268Z,36.43
2019-06-08T09:40:44.640Z,33.84
2019-06-08T09:43:15.404Z,34.92
2019-06-08T09:45:48.135Z,33.75
2019-06-08T09:48:18.376Z,33.60
2019-06-08T09:50:49.150Z,32.64
2019-06-08T09:53:28.422Z,33.76
2019-06-08T09:55:53.307Z,34.22
2019-06-08T09:58:24.360Z,33.16
2019-06-08T10:00:57.203Z,33.53
2019-06-08T10:03:30.751Z,32.19
2019-06-08T10:06:05.500Z,31.40
2019-06-08T10:08:32.411Z,31.05
2019-06-08T10:11:05.649Z,30.37
2019-06-08T10:13:34.745Z,31.87
2019-06-08T10:16:09.305Z,29.41
2019-06-08T10:18:38.631Z,29.85
2019-06-08T10:21:09.587Z,29.20
2019-06-08T10:23:41.535Z,29.50
2019-06-08T10:26:12.684Z,29.67
2019-06-08T10:28:42.952Z,28.94
2019-06-08T10:31:13.567Z,29.58
2019-06-08T10:33:48.019Z,30.62
2019-06-08T10:36:18.268Z,30.86
2019-06-08T10:38:48.926Z,30.35
2019-06-08T10:41:21.804Z,29.81
2019-06-08T10:43:51.708Z,31.47
2019-06-08T10:46:22.297Z,30.74
2019-06-08T10:48:52.619Z,31.29
2019-06-08T10:51:23.296Z,29.65
2019-06-08T10:53:54.054Z,30.80
2019-06-08T10:56:24.283Z,29.19
2019-06-08T10:58:55.191Z,28.38
2019-06-08T11:01:28.120Z,28.31
2019-06-08T11:03:58.423Z,26.77
2019-06-08T11:06:29.628Z,26.21
2019-06-08T11:09:03.730Z,28.24
2019-06-08T11:11:33.504Z,26.28
2019-06-08T11:14:06.222Z,26.20
2019-06-08T11:16:38.562Z,26.17
2019-06-08T11:19:12.896Z,26.29
2019-06-08T11:21:41.336Z,26.46
2019-06-08T11:24:21.626Z,26.42
2019-06-08T11:26:47.708Z,26.16
2019-06-08T11:29:18.783Z,26.94
2019-06-08T11:31:50.936Z,27.08
2019-06-08T11:34:21.896Z,27.59
2019-06-08T11:36:52.605Z,27.06
2019-06-08T11:39:22.949Z,27.13
2019-06-08T11:41:53.465Z,28.33
2019-06-08T11:44:23.920Z,27.32
2019-06-08T11:46:54.530Z,27.95
2019-06-08T11:49:27.720Z,26.17
2019-06-08T11:51:58.357Z,26.70
2019-06-08T11:54:36.859Z,26.39
2019-06-08T11:57:01.155Z,26.83
2019-06-08T11:59:32.692Z,26.87
2019-06-08T12:02:03.546Z,28.48
2019-06-08T12:04:34.263Z,28.03
2019-06-08T12:07:04.750Z,27.88
2019-06-08T12:09:35.046Z,27.83
2019-06-08T12:12:09.003Z,29.19
2019-06-08T12:14:40.535Z,28.07
2019-06-08T12:17:15.386Z,29.16
2019-06-08T12:19:42.622Z,29.16
2019-06-08T12:22:14.221Z,28.00
2019-06-08T12:24:45.150Z,27.50
2019-06-08T12:27:29.584Z,27.53
2019-06-08T12:29:50.231Z,27.27
2019-06-08T12:32:19.726Z,28.03
2019-06-08T12:34:50.211Z,29.67
2019-06-08T12:37:22.365Z,28.03
2019-06-08T12:39:52.981Z,28.18
2019-06-08T12:42:25.047Z,26.62
2019-06-08T12:44:55.605Z,27.09
2019-06-08T12:47:29.258Z,27.69
2019-06-08T12:49:58.572Z,28.37
2019-06-08T12:52:29.855Z,28.40
2019-06-08T12:55:06.778Z,28.30
2019-06-08T12:57:32.637Z,27.79
2019-06-08T13:00:03.158Z,27.55
2019-06-08T13:02:33.760Z,29.11
2019-06-08T13:05:04.639Z,27.77
2019-06-08T13:07:35.088Z,27.38
2019-06-08T13:10:06.372Z,27.05
2019-06-08T13:12:40.642Z,26.76
2019-06-08T13:15:10.085Z,26.71
2019-06-08T13:17:41.127Z,26.60
2019-06-08T13:20:20.518Z,27.43
2019-06-08T13:22:49.608Z,28.29
2019-06-08T13:25:36.332Z,27.99
2019-06-08T13:27:52.048Z,27.44
2019-06-08T13:30:26.036Z,28.02
2019-06-08T13:32:54.651Z,27.61
2019-06-08T13:35:27.385Z,27.41
2019-06-08T13:37:57.704Z,27.44
2019-06-08T13:40:28.096Z,28.45
2019-06-08T13:42:58.413Z,27.17
2019-06-08T13:45:29.142Z,25.68
2019-06-08T13:47:59.697Z,27.39
2019-06-08T13:50:29.989Z,27.49
2019-06-08T13:53:01.790Z,27.51
2019-06-08T13:55:48.105Z,27.22
2019-06-08T13:58:05.227Z,26.54
2019-06-08T14:00:38.555Z,27.91
2019-06-08T14:03:09.143Z,27.96
2019-06-08T14:05:39.713Z,28.20
2019-06-08T14:08:10.988Z,28.85
2019-06-08T14:10:42.014Z,28.01
2019-06-08T14:13:12.788Z,27.82
2019-06-08T14:15:43.984Z,29.08
2019-06-08T14:18:17.912Z,27.06
2019-06-08T14:20:48.377Z,27.04
2019-06-08T14:23:21.083Z,26.83
2019-06-08T14:25:56.742Z,27.95
2019-06-08T14:28:24.450Z,27.13
2019-06-08T14:30:55.180Z,26.63
2019-06-08T14:33:29.153Z,26.96
2019-06-08T14:35:59.188Z,26.64
2019-06-08T14:38:38.316Z,25.90
2019-06-08T14:41:02.094Z,26.97
2019-06-08T14:43:32.395Z,26.29
2019-06-08T14:46:02.982Z,26.87
2019-06-08T14:48:34.015Z,25.93
2019-06-08T14:51:04.444Z,26.06
2019-06-08T14:53:35.089Z,27.37
2019-06-08T14:56:08.757Z,26.94
2019-06-08T14:58:38.566Z,26.32
2019-06-08T15:01:09.209Z,26.47
2019-06-08T15:03:39.528Z,25.53
2019-06-08T15:06:10.430Z,25.51
2019-06-08T15:08:40.819Z,25.50
2019-06-08T15:11:11.131Z,25.74
2019-06-08T15:13:42.082Z,27.50
2019-06-08T15:16:12.607Z,27.41
2019-06-08T15:18:42.885Z,28.67
2019-06-08T15:21:13.547Z,27.62
2019-06-08T15:23:44.105Z,28.26
2019-06-08T15:26:24.014Z,26.72
2019-06-08T15:28:48.513Z,28.39
2019-06-08T15:31:19.447Z,27.29
2019-06-08T15:33:49.960Z,29.08
2019-06-08T15:36:22.091Z,26.40
2019-06-08T15:38:52.618Z,26.15
2019-06-08T15:41:24.551Z,27.81
2019-06-08T15:43:57.508Z,26.63
2019-06-08T15:46:28.309Z,27.05
2019-06-08T15:48:58.842Z,26.98
2019-06-08T15:51:33.890Z,26.73
2019-06-08T15:54:01.549Z,27.13
2019-06-08T15:56:43.168Z,25.89
2019-06-08T15:59:03.992Z,26.57
2019-06-08T16:01:34.291Z,26.68
2019-06-08T16:04:04.957Z,28.36
2019-06-08T16:06:35.276Z,28.88
2019-06-08T16:09:08.226Z,27.80
2019-06-08T16:11:38.901Z,28.87
2019-06-08T16:14:09.186Z,29.55
2019-06-08T16:16:39.473Z,27.26
2019-06-08T16:19:10.227Z,27.34
2019-06-08T16:21:40.538Z,27.09
2019-06-08T16:24:10.812Z,27.13
2019-06-08T16:26:52.671Z,28.72
2019-06-08T16:29:13.844Z,27.72
2019-06-08T16:31:44.263Z,27.75
2019-06-08T16:34:14.843Z,27.95
2019-06-08T16:36:45.289Z,27.33
2019-06-08T16:39:16.035Z,27.51
2019-06-08T16:41:46.446Z,27.58
2019-06-08T16:44:16.735Z,28.13
2019-06-08T16:46:47.668Z,28.04
2019-06-08T16:49:18.228Z,29.35
2019-06-08T16:51:48.850Z,28.90
2019-06-08T16:54:19.697Z,29.09
2019-06-08T16:56:50.053Z,29.15
2019-06-08T16:59:20.461Z,29.45
2019-06-08T17:01:51.158Z,29.21
2019-06-08T17:04:22.804Z,29.45
2019-06-08T17:06:53.141Z,28.60
2019-06-08T17:09:23.631Z,29.19
2019-06-08T17:11:54.621Z,28.56
2019-06-08T17:14:25.524Z,29.16
2019-06-08T17:16:56.167Z,29.06
2019-06-08T17:19:26.453Z,29.70
2019-06-08T17:21:57.147Z,29.34
2019-06-08T17:24:27.522Z,29.95
2019-06-08T17:26:57.829Z,30.02
2019-06-08T17:29:28.188Z,30.08
2019-06-08T17:31:58.857Z,30.73
2019-06-08T17:34:29.177Z,31.14
2019-06-08T17:37:00.562Z,32.14
2019-06-08T17:39:31.745Z,32.69
2019-06-08T17:42:02.693Z,33.37
2019-06-08T17:44:34.860Z,33.67
2019-06-08T17:47:05.575Z,33.85
2019-06-08T17:49:36.771Z,34.73
2019-06-08T17:52:07.591Z,35.38
2019-06-08T17:54:38.984Z,35.84
2019-06-08T17:57:09.354Z,36.67
2019-06-08T17:59:41.672Z,36.94
2019-06-08T18:02:15.502Z,37.63
2019-06-08T18:04:44.482Z,37.92
2019-06-08T18:07:17.143Z,38.15
2019-06-08T18:09:48.482Z,37.96
2019-06-08T18:12:19.141Z,38.45
2019-06-08T18:14:49.431Z,38.91
2019-06-08T18:17:19.757Z,39.18
2019-06-08T18:19:50.412Z,39.44
2019-06-08T18:22:20.751Z,39.60
2019-06-08T18:24:51.057Z,40.14
2019-06-08T18:27:21.750Z,39.96
2019-06-08T18:29:52.213Z,40.42
2019-06-08T18:32:22.516Z,40.66
2019-06-08T18:34:53.007Z,40.95
2019-06-08T18:37:23.860Z,40.80
2019-06-08T18:42:23.157Z,41.47
2019-06-08T18:44:53.886Z,41.75
2019-06-08T18:47:24.479Z,42.02
2019-06-08T18:49:57.300Z,42.14
2019-06-08T18:52:28.222Z,42.41
2019-06-08T18:54:58.555Z,42.63
2019-06-08T18:57:28.974Z,42.71
2019-06-08T18:59:59.746Z,43.05
2019-06-08T19:02:30.416Z,43.25
2019-06-08T19:05:00.687Z,43.61
2019-06-08T19:07:32.540Z,43.73
2019-06-08T19:10:07.542Z,44.18
2019-06-08T19:12:39.969Z,44.29
2019-06-08T19:15:11.444Z,44.77
2019-06-08T19:17:47.244Z,44.68
2019-06-08T19:20:17.307Z,44.91
2019-06-08T19:22:53.918Z,45.21
2019-06-08T19:25:19.637Z,45.45
2019-06-08T19:27:53.198Z,46.00
2019-06-08T19:30:24.882Z,46.45
2019-06-08T19:32:54.582Z,46.58
2019-06-08T19:35:27.358Z,46.60
2019-06-08T19:37:58.347Z,46.79
2019-06-08T19:40:28.892Z,46.78
2019-06-08T19:43:01.520Z,46.74
2019-06-08T19:45:32.475Z,47.16
2019-06-08T19:48:02.746Z,47.44
2019-06-08T19:50:33.391Z,47.99
2019-06-08T19:53:03.671Z,48.30
2019-06-08T19:55:34.467Z,48.47
2019-06-08T19:58:05.075Z,48.82
2019-06-08T20:00:35.347Z,48.99
2019-06-08T20:03:07.643Z,48.79
2019-06-08T20:05:38.541Z,49.07
2019-06-08T20:08:11.932Z,49.36
2019-06-08T20:10:43.033Z,49.26
2019-06-08T20:13:14.772Z,49.51
2019-06-08T20:15:52.341Z,49.66
2019-06-08T20:18:17.385Z,49.84
2019-06-08T20:20:50.547Z,50.16
2019-06-08T20:23:20.853Z,50.45
2019-06-08T20:25:52.045Z,50.81
2019-06-08T20:28:22.281Z,51.20
2019-06-08T20:30:52.732Z,51.46
2019-06-08T20:33:23.430Z,51.74
2019-06-08T20:35:53.939Z,51.91
2019-06-08T20:38:35.109Z,52.34
2019-06-08T20:40:57.994Z,52.27
2019-06-08T20:43:28.443Z,52.63
2019-06-08T20:45:58.802Z,52.73
2019-06-08T20:48:29.451Z,53.33
2019-06-08T20:50:59.833Z,53.06
2019-06-08T20:53:30.202Z,53.51
2019-06-08T20:56:00.501Z,53.45
2019-06-08T20:58:30.815Z,53.30
2019-06-08T21:01:01.559Z,53.53
2019-06-08T21:03:31.871Z,53.69
2019-06-08T21:06:02.216Z,53.82
2019-06-08T21:08:33.025Z,53.73
2019-06-08T21:11:03.558Z,54.04
2019-06-08T21:13:33.866Z,54.04
2019-06-08T21:16:04.616Z,54.15
2019-06-08T21:18:35.016Z,53.94
2019-06-08T21:21:05.313Z,54.43
2019-06-08T21:23:35.735Z,54.54
2019-06-08T21:26:07.970Z,54.87
2019-06-08T21:28:38.646Z,55.32
2019-06-08T21:31:09.295Z,55.60
2019-06-08T21:33:39.583Z,55.82
2019-06-08T21:36:10.269Z,55.95
2019-06-08T21:38:40.944Z,56.13
2019-06-08T21:42:04.985Z,56.61
2019-06-08T21:44:37.203Z,56.62
2019-06-08T21:47:08.045Z,57.15
2019-06-08T21:49:38.558Z,57.21
2019-06-08T21:52:08.975Z,57.23
2019-06-08T21:54:39.712Z,57.47
2019-06-08T21:57:10.020Z,57.87
2019-06-08T21:59:41.275Z,57.40
2019-06-08T22:02:11.990Z,58.01
2019-06-08T22:04:42.577Z,57.83
2019-06-08T22:07:13.341Z,57.49
2019-06-08T22:12:50.774Z,57.89
2019-06-08T22:15:22.603Z,58.46
2019-06-08T22:17:53.153Z,58.48
2019-06-08T22:20:23.491Z,58.64
2019-06-08T22:22:55.121Z,58.58
2019-06-08T22:25:27.718Z,58.00
2019-06-08T22:27:58.378Z,58.03
2019-06-08T22:30:39.306Z,58.04
2019-06-08T22:33:01.755Z,58.54
2019-06-08T22:35:32.582Z,58.71
2019-06-08T22:38:03.336Z,58.69
2019-06-08T22:40:33.684Z,58.69
2019-06-08T22:43:04.417Z,58.78
2019-06-08T22:45:37.303Z,58.75
2019-06-08T22:48:08.253Z,58.54
2019-06-08T22:50:39.720Z,58.54
2019-06-08T22:53:10.312Z,59.08
2019-06-08T22:55:40.616Z,58.99
2019-06-08T22:58:11.116Z,59.37
2019-06-08T23:00:52.329Z,59.24
2019-06-08T23:03:13.637Z,59.11
2019-06-08T23:05:44.060Z,59.44
2019-06-08T23:08:17.385Z,59.41
2019-06-08T23:10:48.290Z,59.67
2019-06-08T23:13:18.772Z,59.51
2019-06-08T23:15:49.360Z,59.52
2019-06-08T23:18:19.715Z,59.60
2019-06-08T23:20:49.980Z,59.35
2019-06-08T23:23:20.583Z,59.34
2019-06-08T23:25:51.071Z,59.37
2019-06-08T23:28:21.462Z,59.69
2019-06-08T23:31:04.948Z,59.57
2019-06-08T23:33:24.529Z,59.75
2019-06-08T23:36:32.301Z,59.69
2019-06-08T23:38:27.916Z,59.43
2019-06-08T23:41:00.810Z,59.29
2019-06-08T23:43:31.605Z,60.04
2019-06-08T23:46:02.419Z,59.93
2019-06-08T23:48:33.888Z,60.13
2019-06-08T23:51:04.626Z,60.31
2019-06-08T23:53:35.269Z,60.12
2019-06-08T23:56:08.443Z,60.52
2019-06-08T23:58:37.772Z,60.60
